createdAt,value
2018-06-04T00:02:27.601Z,17.24
2018-06-04T00:05:31.994Z,17.23
2018-06-04T00:08:36.377Z,17.17
2018-06-04T00:11:40.817Z,17.09
2018-06-04T00:14:45.219Z,17.04
2018-06-04T00:17:49.622Z,17.07
2018-06-04T00:20:54.068Z,17.07
2018-06-04T00:23:58.460Z,17.09
2018-06-04T00:27:03.729Z,17.12
2018-06-04T00:30:08.109Z,17.06
2018-06-04T00:33:12.522Z,17.02
2018-06-04T00:36:16.898Z,16.98
2018-06-04T00:39:21.307Z,16.92
2018-06-04T00:42:25.707Z,16.90
2018-06-04T00:45:30.092Z,16.92
2018-06-04T00:48:34.502Z,16.88
2018-06-04T00:51:38.918Z,16.87
2018-06-04T00:54:43.290Z,16.88
2018-06-04T00:57:47.685Z,16.85
2018-06-04T01:00:52.062Z,16.84
2018-06-04T01:03:56.503Z,16.84
2018-06-04T01:07:00.913Z,16.83
2018-06-04T01:10:05.385Z,16.82
2018-06-04T01:13:09.792Z,16.84
2018-06-04T01:16:14.196Z,16.89
2018-06-04T01:19:18.571Z,16.82
2018-06-04T01:22:22.975Z,16.78
2018-06-04T01:25:27.365Z,16.72
2018-06-04T01:28:31.749Z,16.68
2018-06-04T01:31:36.125Z,16.64
2018-06-04T01:34:40.549Z,16.61
2018-06-04T01:37:44.936Z,16.63
2018-06-04T01:40:49.341Z,16.65
2018-06-04T01:43:53.726Z,16.65
2018-06-04T01:46:58.146Z,16.64
2018-06-04T01:50:02.537Z,16.65
2018-06-04T01:53:06.934Z,16.60
2018-06-04T01:56:11.317Z,16.60
2018-06-04T01:59:15.725Z,16.64
2018-06-04T02:02:20.105Z,16.63
2018-06-04T02:05:24.550Z,16.56
2018-06-04T02:08:28.934Z,16.53
2018-06-04T02:11:33.337Z,16.51
2018-06-04T02:14:37.733Z,16.46
2018-06-04T02:17:42.156Z,16.48
2018-06-04T02:20:46.533Z,16.46
2018-06-04T02:23:50.946Z,16.48
2018-06-04T02:26:55.339Z,16.52
2018-06-04T02:29:59.730Z,16.53
2018-06-04T02:33:04.179Z,16.55
2018-06-04T02:36:08.564Z,16.53
2018-06-04T02:39:13.003Z,16.55
2018-06-04T02:42:17.407Z,16.53
2018-06-04T02:45:21.841Z,16.53
2018-06-04T02:48:26.249Z,16.56
2018-06-04T02:51:30.657Z,16.60
2018-06-04T02:54:35.053Z,16.63
2018-06-04T02:57:39.429Z,16.61
2018-06-04T03:00:43.819Z,16.60
2018-06-04T03:03:48.215Z,16.56
2018-06-04T03:06:52.592Z,16.56
2018-06-04T03:09:57.023Z,16.57
2018-06-04T03:13:01.410Z,16.57
2018-06-04T03:16:05.923Z,16.51
2018-06-04T03:19:10.317Z,16.49
2018-06-04T03:22:14.680Z,16.51
2018-06-04T03:25:19.073Z,16.47
2018-06-04T03:28:23.477Z,16.49
2018-06-04T03:31:27.902Z,16.43
2018-06-04T03:34:32.293Z,16.38
2018-06-04T03:37:36.681Z,16.37
2018-06-04T03:40:41.093Z,16.40
2018-06-04T03:43:45.791Z,16.36
2018-06-04T03:46:50.294Z,16.36
2018-06-04T03:49:54.720Z,16.41
2018-06-04T03:52:59.165Z,16.40
2018-06-04T03:56:03.557Z,16.44
2018-06-04T03:59:08.007Z,16.41
2018-06-04T04:02:12.933Z,16.40
2018-06-04T04:05:17.339Z,16.38
2018-06-04T04:08:21.783Z,16.40
2018-06-04T04:11:26.171Z,16.38
2018-06-04T04:14:30.578Z,16.40
2018-06-04T04:17:34.979Z,16.40
2018-06-04T04:20:39.390Z,16.48
2018-06-04T04:23:43.775Z,16.53
2018-06-04T04:26:48.183Z,16.55
2018-06-04T04:29:52.575Z,16.56
2018-06-04T04:32:56.957Z,16.52
2018-06-04T04:36:01.370Z,16.53
2018-06-04T04:39:09.195Z,16.55
2018-06-04T04:42:13.591Z,16.55
2018-06-04T04:45:18.113Z,16.56
2018-06-04T04:48:22.578Z,16.52
2018-06-04T04:51:26.962Z,16.54
2018-06-04T04:54:31.441Z,16.58
2018-06-04T04:57:35.803Z,16.59
2018-06-04T05:00:40.246Z,16.58
2018-06-04T05:03:44.658Z,16.53
2018-06-04T05:06:49.054Z,16.58
2018-06-04T05:09:53.489Z,16.59
2018-06-04T05:12:57.903Z,16.64
2018-06-04T05:16:02.330Z,16.63
2018-06-04T05:19:06.750Z,16.64
2018-06-04T05:22:11.203Z,16.65
2018-06-04T05:25:15.614Z,16.64
2018-06-04T05:28:20.034Z,16.64
2018-06-04T05:31:24.432Z,16.60
2018-06-04T05:34:28.881Z,16.57
2018-06-04T05:37:33.291Z,16.62
2018-06-04T05:40:37.709Z,16.62
2018-06-04T05:43:42.123Z,16.62
2018-06-04T05:46:46.522Z,16.61
2018-06-04T05:49:50.958Z,16.63
2018-06-04T05:52:55.373Z,16.60
2018-06-04T05:55:59.766Z,16.59
2018-06-04T05:59:04.219Z,16.67
2018-06-04T06:02:08.689Z,16.68
2018-06-04T06:05:13.108Z,16.69
2018-06-04T06:08:17.517Z,16.70
2018-06-04T06:11:22.193Z,16.70
2018-06-04T06:14:26.640Z,16.72
2018-06-04T06:17:31.059Z,16.66
2018-06-04T06:20:35.473Z,16.74
2018-06-04T06:23:39.922Z,16.72
2018-06-04T06:26:44.366Z,16.79
2018-06-04T06:29:49.041Z,16.80
2018-06-04T06:32:53.477Z,16.80
2018-06-04T06:35:57.891Z,16.82
2018-06-04T06:39:02.326Z,16.84
2018-06-04T06:42:06.733Z,16.84
2018-06-04T06:45:11.173Z,16.89
2018-06-04T06:48:15.582Z,16.92
2018-06-04T06:51:20.050Z,16.97
2018-06-04T06:54:24.450Z,16.94
2018-06-04T06:57:28.869Z,16.93
2018-06-04T07:00:33.241Z,16.99
2018-06-04T07:03:37.650Z,17.04
2018-06-04T07:06:42.054Z,17.11
2018-06-04T07:09:46.509Z,17.11
2018-06-04T07:12:50.889Z,17.10
2018-06-04T07:15:55.328Z,17.13
2018-06-04T07:18:59.726Z,17.19
2018-06-04T07:22:04.179Z,17.19
2018-06-04T07:25:08.554Z,17.19
2018-06-04T07:28:13.006Z,17.17
2018-06-04T07:31:17.401Z,17.21
2018-06-04T07:34:21.814Z,17.23
2018-06-04T07:37:26.226Z,17.31
2018-06-04T07:40:30.661Z,17.29
2018-06-04T07:43:35.128Z,17.35
2018-06-04T07:46:39.549Z,17.44
2018-06-04T07:49:43.954Z,17.54
2018-06-04T07:52:48.353Z,17.68
2018-06-04T07:55:52.758Z,17.77
2018-06-04T07:58:57.154Z,17.87
2018-06-04T08:02:01.590Z,17.99
2018-06-04T08:05:06.244Z,18.11
2018-06-04T08:08:10.653Z,18.14
2018-06-04T08:11:15.067Z,18.18
2018-06-04T08:14:19.489Z,18.26
2018-06-04T08:17:23.877Z,18.35
2018-06-04T08:20:28.284Z,18.48
2018-06-04T08:23:32.685Z,18.57
2018-06-04T08:26:37.102Z,18.71
2018-06-04T08:29:41.486Z,18.76
2018-06-04T08:32:45.918Z,18.82
2018-06-04T08:35:50.306Z,18.91
2018-06-04T08:38:54.717Z,18.86
2018-06-04T08:41:59.124Z,18.92
2018-06-04T08:45:03.564Z,19.01
2018-06-04T08:48:07.955Z,18.95
2018-06-04T08:51:12.387Z,18.96
2018-06-04T08:54:16.810Z,19.07
2018-06-04T08:57:20.966Z,19.13
2018-06-04T09:00:25.366Z,19.18
2018-06-04T09:03:29.778Z,19.25
2018-06-04T09:06:34.169Z,19.31
2018-06-04T09:09:38.593Z,19.32
2018-06-04T09:12:43.001Z,19.37
2018-06-04T09:15:47.463Z,19.43
2018-06-04T09:18:51.877Z,19.44
2018-06-04T09:21:56.291Z,19.50
2018-06-04T09:25:00.706Z,19.60
2018-06-04T09:28:05.481Z,19.73
2018-06-04T09:31:09.951Z,19.79
2018-06-04T09:34:14.368Z,19.92
2018-06-04T09:37:18.764Z,19.91
2018-06-04T09:40:23.165Z,19.96
2018-06-04T09:43:27.573Z,20.03
2018-06-04T09:46:32.019Z,20.19
2018-06-04T09:49:36.426Z,20.16
2018-06-04T09:52:40.866Z,20.16
2018-06-04T09:55:45.269Z,20.20
2018-06-04T09:58:49.694Z,20.27
2018-06-04T10:01:54.093Z,20.22
2018-06-04T10:04:58.520Z,20.21
2018-06-04T10:08:02.966Z,20.25
2018-06-04T10:11:07.394Z,20.34
2018-06-04T10:14:11.837Z,20.29
2018-06-04T10:17:16.235Z,20.38
2018-06-04T10:20:20.729Z,20.37
2018-06-04T10:23:25.137Z,20.44
2018-06-04T10:26:29.546Z,20.49
2018-06-04T10:29:38.260Z,20.51
2018-06-04T10:32:42.921Z,20.59
2018-06-04T10:35:47.345Z,20.70
2018-06-04T10:38:56.054Z,20.84
2018-06-04T10:42:02.434Z,20.97
2018-06-04T10:45:07.076Z,20.90
2018-06-04T10:48:12.531Z,20.81
2018-06-04T10:51:17.038Z,20.77
2018-06-04T10:54:22.345Z,20.88
2018-06-04T10:57:26.937Z,20.91
2018-06-04T11:00:31.473Z,20.89
2018-06-04T11:03:42.108Z,20.87
2018-06-04T11:06:51.398Z,20.89
2018-06-04T11:09:56.015Z,20.95
2018-06-04T11:13:00.527Z,21.01
2018-06-04T11:16:05.089Z,21.07
2018-06-04T11:19:09.676Z,21.11
2018-06-04T11:22:14.111Z,21.15
2018-06-04T11:25:18.610Z,21.07
2018-06-04T11:28:22.997Z,21.07
2018-06-04T11:31:28.438Z,21.07
2018-06-04T11:34:32.828Z,20.98
2018-06-04T11:37:37.253Z,20.83
2018-06-04T11:40:41.752Z,20.70
2018-06-04T11:43:47.661Z,20.82
2018-06-04T11:46:52.210Z,20.89
2018-06-04T11:49:56.673Z,20.92
2018-06-04T11:53:01.154Z,20.95
2018-06-04T11:56:05.864Z,21.01
2018-06-04T11:59:10.845Z,21.12
2018-06-04T12:02:15.535Z,21.18
2018-06-04T12:05:20.011Z,21.18
2018-06-04T12:08:24.534Z,21.25
2018-06-04T12:11:29.738Z,21.19
2018-06-04T12:14:34.358Z,21.13
2018-06-04T12:17:38.974Z,21.08
2018-06-04T12:20:43.490Z,21.04
2018-06-04T12:23:47.999Z,21.16
2018-06-04T12:26:52.465Z,21.38
2018-06-04T12:29:56.896Z,21.33
2018-06-04T12:33:01.362Z,21.23
2018-06-04T12:36:06.344Z,21.13
2018-06-04T12:39:10.832Z,21.12
2018-06-04T12:42:15.324Z,21.08
2018-06-04T12:45:20.318Z,21.05
2018-06-04T12:48:24.830Z,21.02
2018-06-04T12:51:29.345Z,20.92
2018-06-04T12:54:33.872Z,20.74
2018-06-04T12:57:38.363Z,20.65
2018-06-04T13:00:42.840Z,20.53
2018-06-04T13:03:47.566Z,20.48
2018-06-04T13:06:52.314Z,20.44
2018-06-04T13:09:56.849Z,20.51
2018-06-04T13:13:01.263Z,20.59
2018-06-04T13:16:05.833Z,20.66
2018-06-04T13:19:10.306Z,20.73
2018-06-04T13:22:14.795Z,20.80
2018-06-04T13:25:19.188Z,20.80
2018-06-04T13:28:23.597Z,20.69
2018-06-04T13:31:28.017Z,20.52
2018-06-04T13:34:33.570Z,20.39
2018-06-04T13:37:39.197Z,20.46
2018-06-04T13:40:43.617Z,20.51
2018-06-04T13:43:48.217Z,20.47
2018-06-04T13:47:04.667Z,20.44
2018-06-04T13:50:09.237Z,20.50
2018-06-04T13:53:20.091Z,20.55
2018-06-04T13:56:25.277Z,20.59
2018-06-04T13:59:29.972Z,20.66
2018-06-04T14:02:35.325Z,20.88
2018-06-04T14:05:39.770Z,21.08
2018-06-04T14:08:44.177Z,21.17
2018-06-04T14:11:48.583Z,21.34
2018-06-04T14:14:53.009Z,21.43
2018-06-04T14:17:57.453Z,21.31
2018-06-04T14:21:01.860Z,21.23
2018-06-04T14:24:06.264Z,21.03
2018-06-04T14:27:10.660Z,20.91
2018-06-04T14:30:15.063Z,20.83
2018-06-04T14:33:19.478Z,20.69
2018-06-04T14:36:23.890Z,20.58
2018-06-04T14:39:28.295Z,20.44
2018-06-04T14:42:32.666Z,20.42
2018-06-04T14:45:37.064Z,20.34
2018-06-04T14:48:41.477Z,20.29
2018-06-04T14:51:45.876Z,20.24
2018-06-04T14:54:50.276Z,20.23
2018-06-04T14:57:54.678Z,20.19
2018-06-04T15:00:59.091Z,20.04
2018-06-04T15:04:03.548Z,19.99
2018-06-04T15:07:08.171Z,20.00
2018-06-04T15:10:12.597Z,20.01
2018-06-04T15:13:17.022Z,19.93
2018-06-04T15:16:21.458Z,19.95
2018-06-04T15:19:25.911Z,19.99
2018-06-04T15:22:30.366Z,19.96
2018-06-04T15:25:34.799Z,19.99
2018-06-04T15:28:39.205Z,19.94
2018-06-04T15:31:43.623Z,19.92
2018-06-04T15:34:48.660Z,19.91
2018-06-04T15:37:53.519Z,19.83
2018-06-04T15:40:57.898Z,19.89
2018-06-04T15:44:03.288Z,19.97
2018-06-04T15:47:07.798Z,19.94
2018-06-04T15:50:12.215Z,19.89
2018-06-04T15:53:17.040Z,19.90
2018-06-04T15:56:21.693Z,19.88
2018-06-04T15:59:26.289Z,19.81
2018-06-04T16:02:30.902Z,19.80
2018-06-04T16:05:35.502Z,19.87
2018-06-04T16:08:40.333Z,19.93
2018-06-04T16:11:45.467Z,19.90
2018-06-04T16:14:50.073Z,19.77
2018-06-04T16:17:54.517Z,19.79
2018-06-04T16:20:58.957Z,19.79
2018-06-04T16:24:03.490Z,19.70
2018-06-04T16:27:08.052Z,19.66
2018-06-04T16:30:12.741Z,19.74
2018-06-04T16:33:17.286Z,19.71
2018-06-04T16:36:22.430Z,19.72
2018-06-04T16:39:26.982Z,19.65
2018-06-04T16:42:34.846Z,19.65
2018-06-04T16:45:39.314Z,19.53
2018-06-04T16:48:51.408Z,19.55
2018-06-04T16:51:57.759Z,19.53
2018-06-04T16:55:02.251Z,19.43
2018-06-04T16:58:07.026Z,19.38
2018-06-04T17:01:11.465Z,19.39
2018-06-04T17:04:15.853Z,19.41
2018-06-04T17:07:20.237Z,19.44
2018-06-04T17:10:24.621Z,19.40
2018-06-04T17:13:28.760Z,19.38
2018-06-04T17:16:33.152Z,19.33
2018-06-04T17:19:37.537Z,19.28
2018-06-04T17:22:41.921Z,19.30
2018-06-04T17:25:46.318Z,19.25
2018-06-04T17:28:50.730Z,19.27
2018-06-04T17:31:55.112Z,19.29
2018-06-04T17:34:59.489Z,19.27
2018-06-04T17:38:03.872Z,19.25
2018-06-04T17:41:08.304Z,19.25
2018-06-04T17:44:12.729Z,19.24
2018-06-04T17:47:17.132Z,19.18
2018-06-04T17:50:21.532Z,19.14
2018-06-04T17:53:25.922Z,19.13
2018-06-04T17:56:30.350Z,19.05
2018-06-04T17:59:34.753Z,18.99
2018-06-04T18:02:39.209Z,18.92
2018-06-04T18:05:43.618Z,18.90
2018-06-04T18:08:47.992Z,18.91
2018-06-04T18:11:52.413Z,19.01
2018-06-04T18:14:56.839Z,18.94
2018-06-04T18:18:01.338Z,18.89
2018-06-04T18:21:05.702Z,18.83
2018-06-04T18:24:10.221Z,18.79
2018-06-04T18:27:14.641Z,18.75
2018-06-04T18:30:19.053Z,18.67
2018-06-04T18:33:23.461Z,18.61
2018-06-04T18:36:27.864Z,18.52
2018-06-04T18:39:32.385Z,18.45
2018-06-04T18:42:36.792Z,18.37
2018-06-04T18:45:41.204Z,18.25
2018-06-04T18:48:45.609Z,18.17
2018-06-04T18:51:50.053Z,18.11
2018-06-04T18:54:54.446Z,18.07
2018-06-04T18:57:58.860Z,17.98
2018-06-04T19:01:03.267Z,17.87
2018-06-04T19:04:07.674Z,17.80
2018-06-04T19:07:12.398Z,17.66
2018-06-04T19:10:16.805Z,17.54
2018-06-04T19:13:21.218Z,17.48
2018-06-04T19:16:25.591Z,17.40
2018-06-04T19:19:29.981Z,17.34
2018-06-04T19:22:34.376Z,17.33
2018-06-04T19:25:38.802Z,17.22
2018-06-04T19:28:43.225Z,17.16
2018-06-04T19:31:47.623Z,17.07
2018-06-04T19:34:52.041Z,16.97
2018-06-04T19:37:56.463Z,16.91
2018-06-04T19:41:00.860Z,16.82
2018-06-04T19:44:06.210Z,16.75
2018-06-04T19:47:10.647Z,16.70
2018-06-04T19:50:15.098Z,16.65
2018-06-04T19:53:19.487Z,16.59
2018-06-04T19:56:23.877Z,16.54
2018-06-04T19:59:28.281Z,16.45
2018-06-04T20:02:32.712Z,16.40
2018-06-04T20:05:37.085Z,16.37
2018-06-04T20:08:41.828Z,16.32
2018-06-04T20:11:46.224Z,16.26
2018-06-04T20:14:50.652Z,16.20
2018-06-04T20:17:55.033Z,16.19
2018-06-04T20:20:59.488Z,16.13
2018-06-04T20:24:03.928Z,16.07
2018-06-04T20:27:08.323Z,16.01
2018-06-04T20:30:12.694Z,15.97
2018-06-04T20:33:17.077Z,15.89
2018-06-04T20:36:21.468Z,15.87
2018-06-04T20:39:25.846Z,15.83
2018-06-04T20:42:30.337Z,15.73
2018-06-04T20:45:34.700Z,15.66
2018-06-04T20:48:38.811Z,15.65
2018-06-04T20:51:43.194Z,15.61
2018-06-04T20:54:47.599Z,15.58
2018-06-04T20:57:51.986Z,15.51
2018-06-04T21:00:56.407Z,15.50
2018-06-04T21:04:00.817Z,15.53
2018-06-04T21:07:05.189Z,15.46
2018-06-04T21:10:09.573Z,15.46
2018-06-04T21:13:13.972Z,15.45
2018-06-04T21:16:18.407Z,15.43
2018-06-04T21:19:22.866Z,15.41
2018-06-04T21:22:26.987Z,15.39
2018-06-04T21:25:31.345Z,15.36
2018-06-04T21:28:35.753Z,15.34
2018-06-04T21:31:40.143Z,15.31
2018-06-04T21:34:44.520Z,15.28
2018-06-04T21:37:48.985Z,15.25
2018-06-04T21:40:53.365Z,15.21
2018-06-04T21:43:57.750Z,15.15
2018-06-04T21:47:02.171Z,15.14
2018-06-04T21:50:06.734Z,15.10
2018-06-04T21:53:11.106Z,15.13
2018-06-04T21:56:15.514Z,15.08
2018-06-04T21:59:19.880Z,15.02
2018-06-04T22:02:24.250Z,15.03
2018-06-04T22:05:28.797Z,14.99
2018-06-04T22:08:33.198Z,14.95
2018-06-04T22:11:37.592Z,14.91
2018-06-04T22:14:42.099Z,14.88
2018-06-04T22:17:46.489Z,14.88
2018-06-04T22:20:50.904Z,14.84
2018-06-04T22:23:55.311Z,14.84
2018-06-04T22:26:59.708Z,14.85
2018-06-04T22:30:04.149Z,14.88
2018-06-04T22:33:08.630Z,14.91
2018-06-04T22:36:13.012Z,14.90
2018-06-04T22:39:17.496Z,14.88
2018-06-04T22:42:21.884Z,14.86
2018-06-04T22:45:26.280Z,14.82
2018-06-04T22:48:30.663Z,14.80
2018-06-04T22:51:35.965Z,14.78
2018-06-04T22:54:40.355Z,14.79
2018-06-04T22:57:44.733Z,14.74
2018-06-04T23:00:49.127Z,14.71
2018-06-04T23:03:53.512Z,14.71
2018-06-04T23:06:57.893Z,14.68
2018-06-04T23:10:02.278Z,14.67
2018-06-04T23:13:06.704Z,14.64
2018-06-04T23:16:11.107Z,14.61
2018-06-04T23:19:15.505Z,14.61
2018-06-04T23:22:19.913Z,14.55
2018-06-04T23:25:24.314Z,14.54
2018-06-04T23:28:28.701Z,14.55
2018-06-04T23:31:33.103Z,14.53
2018-06-04T23:34:37.484Z,14.51
2018-06-04T23:37:41.894Z,14.52
2018-06-04T23:40:46.261Z,14.47
2018-06-04T23:43:50.645Z,14.45
2018-06-04T23:46:55.029Z,14.41
2018-06-04T23:49:59.426Z,14.36
2018-06-04T23:53:03.802Z,14.32
2018-06-04T23:56:08.190Z,14.28
2018-06-04T23:59:12.554Z,14.22
